createdAt,value
2023-03-05T00:02:40.287Z,12.90
2023-03-05T00:06:52.652Z,13.95
2023-03-05T00:11:08.315Z,10.02
2023-03-05T00:15:20.848Z,11.10
2023-03-05T00:19:33.208Z,7.65
2023-03-05T00:23:45.733Z,6.97
2023-03-05T00:27:58.164Z,7.60
2023-03-05T00:32:10.621Z,9.00
2023-03-05T00:36:23.440Z,9.63
2023-03-05T00:40:40.654Z,9.15
2023-03-05T00:44:53.124Z,9.63
2023-03-05T00:49:05.604Z,11.07
2023-03-05T00:53:18.118Z,11.38
2023-03-05T00:57:30.445Z,10.82
2023-03-05T01:01:42.893Z,11.95
2023-03-05T01:05:55.291Z,13.05
2023-03-05T01:10:08.402Z,14.52
2023-03-05T01:14:22.273Z,16.17
2023-03-05T01:18:36.782Z,18.08
2023-03-05T01:22:49.900Z,19.75
2023-03-05T01:27:02.296Z,22.77
2023-03-05T01:31:14.830Z,25.73
2023-03-05T01:35:27.429Z,30.30
2023-03-05T01:39:39.901Z,34.55
2023-03-05T01:43:53.265Z,34.53
2023-03-05T01:48:05.761Z,32.00
2023-03-05T01:52:22.242Z,29.90
2023-03-05T01:56:35.435Z,25.02
2023-03-05T02:00:50.733Z,19.08
2023-03-05T02:05:07.946Z,18.85
2023-03-05T02:09:24.160Z,17.90
2023-03-05T02:13:40.890Z,21.98
2023-03-05T02:17:53.233Z,21.40
2023-03-05T02:22:06.534Z,23.23
2023-03-05T02:26:18.947Z,20.52
2023-03-05T02:30:31.766Z,17.80
2023-03-05T02:34:44.732Z,19.75
2023-03-05T02:38:59.387Z,23.42
2023-03-05T02:43:12.854Z,23.52
2023-03-05T02:47:25.620Z,25.58
2023-03-05T02:51:38.045Z,25.73
2023-03-05T02:55:51.356Z,26.05
2023-03-05T03:00:05.780Z,26.52
2023-03-05T03:04:18.274Z,28.35
2023-03-05T03:08:31.045Z,23.55
2023-03-05T03:12:45.408Z,23.05
2023-03-05T03:16:59.165Z,19.42
2023-03-05T03:21:18.601Z,17.73
2023-03-05T03:25:30.933Z,11.65
2023-03-05T03:29:43.310Z,10.18
2023-03-05T03:33:55.773Z,9.10
2023-03-05T03:38:08.126Z,9.82
2023-03-05T03:42:21.955Z,10.30
2023-03-05T03:46:34.439Z,10.02
2023-03-05T03:50:46.752Z,11.30
2023-03-05T03:55:01.863Z,11.07
2023-03-05T03:59:14.588Z,10.75
2023-03-05T04:03:26.869Z,10.52
2023-03-05T04:07:39.277Z,10.25
2023-03-05T04:11:51.711Z,10.02
2023-03-05T04:16:04.728Z,10.48
2023-03-05T04:20:17.529Z,9.00
2023-03-05T04:24:29.874Z,9.25
2023-03-05T04:28:43.253Z,9.63
2023-03-05T04:32:55.895Z,10.13
2023-03-05T04:37:08.302Z,10.20
2023-03-05T04:41:20.666Z,9.63
2023-03-05T04:45:33.407Z,9.15
2023-03-05T04:49:46.687Z,9.30
2023-03-05T04:53:59.029Z,8.82
2023-03-05T04:58:11.367Z,8.68
2023-03-05T05:02:23.661Z,9.10
2023-03-05T05:06:36.167Z,8.68
2023-03-05T05:11:03.658Z,7.88
2023-03-05T05:15:17.150Z,7.90
2023-03-05T05:19:29.556Z,7.35
2023-03-05T05:23:42.062Z,8.10
2023-03-05T05:27:55.892Z,6.60
2023-03-05T05:32:08.261Z,6.72
2023-03-05T05:36:22.661Z,6.53
2023-03-05T05:40:35.272Z,5.80
2023-03-05T05:44:48.287Z,6.25
2023-03-05T05:49:00.739Z,6.53
2023-03-05T05:53:13.015Z,6.60
2023-03-05T05:57:25.443Z,7.00
2023-03-05T06:01:40.005Z,7.53
2023-03-05T06:05:52.427Z,6.63
2023-03-05T06:10:05.618Z,7.15
2023-03-05T06:14:18.175Z,6.45
2023-03-05T06:18:30.696Z,5.47
2023-03-05T06:22:43.079Z,5.20
2023-03-05T06:26:56.118Z,4.72
2023-03-05T06:31:19.155Z,4.40
2023-03-05T06:35:31.591Z,4.57
2023-03-05T06:39:44.117Z,4.72
2023-03-05T06:43:57.339Z,3.80
2023-03-05T06:48:09.745Z,4.10
2023-03-05T06:52:21.945Z,4.25
2023-03-05T06:56:37.294Z,4.05
2023-03-05T07:00:49.722Z,4.20
2023-03-05T07:05:04.391Z,4.60
2023-03-05T07:09:17.295Z,5.60
2023-03-05T07:13:30.656Z,5.70
2023-03-05T07:17:49.369Z,7.85
2023-03-05T07:22:01.837Z,10.23
2023-03-05T07:26:16.546Z,8.95
2023-03-05T07:30:29.052Z,8.60
2023-03-05T07:34:41.476Z,8.18
2023-03-05T07:38:54.268Z,8.30
2023-03-05T07:43:06.733Z,5.65
2023-03-05T07:47:20.152Z,5.55
2023-03-05T07:51:34.404Z,6.00
2023-03-05T07:55:47.953Z,9.35
2023-03-05T08:00:00.306Z,10.07
2023-03-05T08:04:12.968Z,8.90
2023-03-05T08:08:25.428Z,9.07
2023-03-05T08:12:37.854Z,8.40
2023-03-05T08:16:53.113Z,9.00
2023-03-05T08:21:06.062Z,9.90
2023-03-05T08:25:21.455Z,10.80
2023-03-05T08:29:34.141Z,9.95
2023-03-05T08:33:46.556Z,10.82
2023-03-05T08:38:02.013Z,11.88
2023-03-05T08:42:14.337Z,11.88
2023-03-05T08:46:26.834Z,12.80
2023-03-05T08:50:39.618Z,11.85
2023-03-05T08:54:52.220Z,11.57
2023-03-05T08:59:05.244Z,11.15
2023-03-05T09:03:18.225Z,11.73
2023-03-05T09:07:30.739Z,11.27
2023-03-05T09:11:43.119Z,11.20
2023-03-05T09:16:03.682Z,9.90
2023-03-05T09:20:16.495Z,11.00
2023-03-05T09:24:29.119Z,10.00
2023-03-05T09:28:42.186Z,9.10
2023-03-05T09:32:55.238Z,8.80
2023-03-05T09:37:09.529Z,7.82
2023-03-05T09:41:59.232Z,5.63
2023-03-05T09:46:18.364Z,6.10
2023-03-05T09:50:48.519Z,5.97
2023-03-05T09:55:03.076Z,7.50
2023-03-05T09:59:52.447Z,3.97
2023-03-05T10:04:13.671Z,2.40
2023-03-05T10:08:45.854Z,4.38
2023-03-05T10:13:01.728Z,3.75
2023-03-05T10:17:26.317Z,3.20
2023-03-05T10:21:52.362Z,5.18
2023-03-05T10:26:08.047Z,4.80
2023-03-05T10:30:27.070Z,4.38
2023-03-05T10:34:58.411Z,4.63
2023-03-05T10:39:34.141Z,4.70
2023-03-05T10:43:59.699Z,5.13
2023-03-05T10:48:12.096Z,4.70
2023-03-05T10:52:37.116Z,3.63
2023-03-05T10:56:49.464Z,3.25
2023-03-05T11:01:22.396Z,3.13
2023-03-05T11:05:44.957Z,3.40
2023-03-05T11:10:21.760Z,5.00
2023-03-05T11:14:36.440Z,6.30
2023-03-05T11:18:49.439Z,6.40
2023-03-05T11:23:05.166Z,6.53
2023-03-05T11:27:32.816Z,6.00
2023-03-05T11:31:45.312Z,5.95
2023-03-05T11:36:25.361Z,4.40
2023-03-05T11:40:37.893Z,4.65
2023-03-05T11:44:58.700Z,3.95
2023-03-05T11:49:16.757Z,3.63
2023-03-05T11:53:35.687Z,4.88
2023-03-05T11:58:06.496Z,4.73
2023-03-05T12:02:23.193Z,4.40
2023-03-05T12:06:50.154Z,3.70
2023-03-05T12:11:15.922Z,4.53
2023-03-05T12:15:43.951Z,3.13
2023-03-05T12:20:14.755Z,3.28
2023-03-05T12:24:28.491Z,3.95
2023-03-05T12:28:59.255Z,4.50
2023-03-05T12:33:31.306Z,4.05
2023-03-05T12:37:52.732Z,6.15
2023-03-05T12:42:31.705Z,5.53
2023-03-05T12:46:46.063Z,5.95
2023-03-05T12:51:13.029Z,3.67
2023-03-05T12:55:36.721Z,4.18
2023-03-05T12:59:55.226Z,4.05
2023-03-05T13:04:22.957Z,4.90
2023-03-05T13:08:37.617Z,5.47
2023-03-05T13:12:55.688Z,5.00
2023-03-05T13:17:33.127Z,5.50
2023-03-05T13:21:45.619Z,4.55
2023-03-05T13:25:59.404Z,5.53
2023-03-05T13:30:29.005Z,5.88
2023-03-05T13:34:48.229Z,6.00
2023-03-05T13:39:00.961Z,4.73
2023-03-05T13:43:20.987Z,3.72
2023-03-05T13:47:40.441Z,3.45
2023-03-05T13:51:56.973Z,3.65
2023-03-05T13:56:16.429Z,4.40
2023-03-05T14:00:42.436Z,4.75
2023-03-05T14:04:55.555Z,5.30
2023-03-05T14:09:19.026Z,5.63
2023-03-05T14:13:32.385Z,5.30
2023-03-05T14:17:44.889Z,5.80
2023-03-05T14:21:57.206Z,4.72
2023-03-05T14:26:32.377Z,4.78
2023-03-05T14:30:49.674Z,4.90
2023-03-05T14:35:05.265Z,5.95
2023-03-05T14:39:27.903Z,5.80
2023-03-05T14:43:40.263Z,8.18
2023-03-05T14:47:54.895Z,7.53
2023-03-05T14:52:07.494Z,7.07
2023-03-05T14:56:26.382Z,7.65
2023-03-05T15:00:38.736Z,9.27
2023-03-05T15:04:57.161Z,9.25
2023-03-05T15:09:11.872Z,10.65
2023-03-05T15:13:24.564Z,10.77
2023-03-05T15:17:39.599Z,10.63
2023-03-05T15:21:52.135Z,11.05
2023-03-05T15:26:09.832Z,11.13
2023-03-05T15:30:29.828Z,11.00
2023-03-05T15:34:42.265Z,11.55
2023-03-05T15:38:54.679Z,12.80
2023-03-05T15:43:07.876Z,14.18
2023-03-05T15:47:20.206Z,12.05
2023-03-05T15:51:32.626Z,11.25
2023-03-05T15:55:46.310Z,11.30
2023-03-05T15:59:58.649Z,10.10
2023-03-05T16:04:12.049Z,11.05
2023-03-05T16:08:24.499Z,9.38
2023-03-05T16:12:41.327Z,10.85
2023-03-05T16:16:55.947Z,10.10
2023-03-05T16:21:08.557Z,10.40
2023-03-05T16:25:22.274Z,10.68
2023-03-05T16:29:34.774Z,10.60
2023-03-05T16:33:47.096Z,11.23
2023-03-05T16:37:59.508Z,12.23
2023-03-05T16:42:13.938Z,11.35
2023-03-05T16:46:29.249Z,12.80
2023-03-05T16:50:41.765Z,12.60
2023-03-05T16:54:54.436Z,13.32
2023-03-05T16:59:07.012Z,12.82
2023-03-05T17:03:23.058Z,15.48
2023-03-05T17:07:35.509Z,15.30
2023-03-05T17:11:47.878Z,17.95
2023-03-05T17:16:00.348Z,15.77
2023-03-05T17:20:16.551Z,15.07
2023-03-05T17:24:29.095Z,16.95
2023-03-05T17:28:42.443Z,17.20
2023-03-05T17:32:55.038Z,19.45
2023-03-05T17:37:07.625Z,22.05
2023-03-05T17:41:21.373Z,22.77
2023-03-05T17:45:35.658Z,22.95
2023-03-05T17:49:48.129Z,24.42
2023-03-05T17:54:00.812Z,25.17
2023-03-05T17:58:13.146Z,27.58
2023-03-05T18:02:25.642Z,27.20
2023-03-05T18:06:38.189Z,25.40
2023-03-05T18:10:50.603Z,24.98
2023-03-05T18:15:05.220Z,26.65
2023-03-05T18:19:18.914Z,25.98
2023-03-05T18:23:31.362Z,23.92
2023-03-05T18:27:43.722Z,24.17
2023-03-05T18:31:56.589Z,21.75
2023-03-05T18:36:11.033Z,21.85
2023-03-05T18:40:25.474Z,18.63
2023-03-05T18:44:37.948Z,21.05
2023-03-05T18:48:50.601Z,25.27
2023-03-05T18:53:03.427Z,30.52
2023-03-05T18:57:15.882Z,31.02
2023-03-05T19:01:28.367Z,31.35
2023-03-05T19:05:41.936Z,30.23
2023-03-05T19:09:59.883Z,31.52
2023-03-05T19:14:12.272Z,34.00
2023-03-05T19:19:24.690Z,30.50
2023-03-05T19:23:38.382Z,33.90
2023-03-05T19:27:52.349Z,31.45
2023-03-05T19:32:05.897Z,31.88
2023-03-05T19:36:18.262Z,31.35
2023-03-05T19:40:30.898Z,31.83
2023-03-05T19:44:43.289Z,33.83
2023-03-05T19:48:56.068Z,35.08
2023-03-05T19:53:08.393Z,34.78
2023-03-05T19:57:20.754Z,36.72
2023-03-05T20:01:33.723Z,35.55
2023-03-05T20:05:46.069Z,34.45
2023-03-05T20:09:58.500Z,38.60
2023-03-05T20:14:13.450Z,38.65
2023-03-05T20:18:26.135Z,32.42
2023-03-05T20:22:41.157Z,33.55
2023-03-05T20:26:54.741Z,48.75
2023-03-05T20:31:07.163Z,39.88
2023-03-05T20:35:19.535Z,35.22
2023-03-05T20:39:32.151Z,26.55
2023-03-05T20:43:47.896Z,25.83
2023-03-05T20:48:00.206Z,26.40
2023-03-05T20:52:12.530Z,26.45
2023-03-05T20:56:28.239Z,25.75
2023-03-05T21:00:41.748Z,23.50
2023-03-05T21:04:54.184Z,24.45
2023-03-05T21:09:06.601Z,25.73
2023-03-05T21:13:19.419Z,24.27
2023-03-05T21:17:31.858Z,25.05
2023-03-05T21:21:45.976Z,22.73
2023-03-05T21:26:01.969Z,21.92
2023-03-05T21:30:14.501Z,21.75
2023-03-05T21:34:27.003Z,22.45
2023-03-05T21:38:39.879Z,25.25
2023-03-05T21:42:54.108Z,24.23
2023-03-05T21:47:06.450Z,26.20
2023-03-05T21:52:11.853Z,23.80
2023-03-05T21:56:26.255Z,22.30
2023-03-05T22:00:38.753Z,22.63
2023-03-05T22:04:51.561Z,21.42
2023-03-05T22:09:04.144Z,18.80
2023-03-05T22:13:18.079Z,19.85
2023-03-05T22:17:30.434Z,17.90
2023-03-05T22:21:42.717Z,17.55
2023-03-05T22:26:04.671Z,17.38
2023-03-05T22:30:17.252Z,17.67
2023-03-05T22:34:29.564Z,16.92
2023-03-05T22:38:43.068Z,16.73
2023-03-05T22:42:56.011Z,17.15
2023-03-05T22:47:08.257Z,16.90
2023-03-05T22:51:20.937Z,18.63
2023-03-05T22:55:34.914Z,17.10
2023-03-05T22:59:50.004Z,17.40
2023-03-05T23:05:00.236Z,18.95
2023-03-05T23:09:12.639Z,17.00
2023-03-05T23:13:25.031Z,15.95
2023-03-05T23:17:37.370Z,17.30
2023-03-05T23:21:49.602Z,17.40
2023-03-05T23:26:02.125Z,18.08
2023-03-05T23:30:22.961Z,16.15
2023-03-05T23:34:35.339Z,16.38
2023-03-05T23:38:48.445Z,16.83
2023-03-05T23:43:00.874Z,17.02
2023-03-05T23:47:13.245Z,15.57
2023-03-05T23:51:25.534Z,15.90
2023-03-05T23:55:43.317Z,14.57
2023-03-05T23:59:55.648Z,14.30
